Time;durP1;ratioP1;P1;durP2;ratioP2;P2;SDS_P1;SDS_P2;PMS_P1;PMS_P2;Temp;Humidity;BMP_temperature;BMP_pressure;BME280_temperature;BME280_humidity;BME280_pressure;Samples;Min_cycle;Max_cycle;Signal;HPM_P1;HPM_P2
2021/06/02 00:02:16;;;;;;;2.93;2.03;;;11.00;96.10;;;;;;5076492;28;20248;-72
2021/06/02 00:04:51;;;;;;;2.90;2.20;;;11.00;96.50;;;;;;5076438;28;20223;-74
2021/06/02 00:07:22;;;;;;;3.10;2.70;;;11.00;96.40;;;;;;5075990;28;20194;-73
2021/06/02 00:09:48;;;;;;;2.10;2.00;;;11.00;96.30;;;;;;5076096;28;20181;-73
2021/06/02 00:12:14;;;;;;;2.42;2.25;;;11.00;97.10;;;;;;5076202;28;20172;-73
2021/06/02 00:14:40;;;;;;;2.50;2.30;;;11.00;96.50;;;;;;5076276;28;20223;-74
2021/06/02 00:17:08;;;;;;;2.90;2.60;;;10.90;96.50;;;;;;5075946;28;20186;-73
2021/06/02 00:19:34;;;;;;;2.30;2.20;;;10.90;96.30;;;;;;5076035;28;20205;-72
2021/06/02 00:22:02;;;;;;;3.08;2.75;;;11.00;96.50;;;;;;5075950;28;20520;-73
2021/06/02 00:24:28;;;;;;;2.83;2.03;;;11.00;95.90;;;;;;5075932;28;20250;-73
2021/06/02 00:26:59;;;;;;;5.70;3.00;;;10.90;95.90;;;;;;5075726;28;20238;-73
2021/06/02 00:29:31;;;;;;;3.35;2.70;;;10.90;95.90;;;;;;5075883;28;20453;-72
2021/06/02 00:31:57;;;;;;;3.40;3.10;;;11.00;96.20;;;;;;5075924;28;20184;-73
2021/06/02 00:34:24;;;;;;;2.25;2.15;;;10.90;96.20;;;;;;5075731;28;20165;-73
2021/06/02 00:36:50;;;;;;;2.70;2.50;;;10.90;96.10;;;;;;5075390;28;20619;-72
2021/06/02 00:39:16;;;;;;;2.58;2.38;;;10.90;95.90;;;;;;5074522;28;20161;-74
2021/06/02 00:41:44;;;;;;;2.90;2.70;;;10.90;96.20;;;;;;5075679;28;20186;-72
2021/06/02 00:44:13;;;;;;;2.63;2.38;;;10.80;96.00;;;;;;5075653;28;20181;-72
2021/06/02 00:46:40;;;;;;;2.40;2.20;;;10.70;96.50;;;;;;5075219;28;20232;-73
2021/06/02 00:49:08;;;;;;;2.65;2.55;;;10.60;96.60;;;;;;5075355;28;20197;-73
2021/06/02 00:51:34;;;;;;;2.97;2.17;;;10.60;96.90;;;;;;5075583;28;20176;-72
2021/06/02 00:54:02;;;;;;;4.68;2.42;;;10.50;96.50;;;;;;5075412;28;20219;-73
2021/06/02 00:56:34;;;;;;;2.35;2.15;;;10.40;96.50;;;;;;5075040;28;20189;-72
2021/06/02 00:59:03;;;;;;;2.53;2.40;;;10.40;97.50;;;;;;5075321;28;20173;-73
2021/06/02 01:01:33;;;;;;;3.13;2.80;;;10.20;97.40;;;;;;5075144;28;20169;-73
2021/06/02 01:04:03;;;;;;;2.03;1.92;;;10.40;97.60;;;;;;5075171;28;20166;-74
2021/06/02 01:06:33;;;;;;;2.15;2.05;;;10.60;96.50;;;;;;5075044;28;20193;-73
2021/06/02 01:09:01;;;;;;;3.10;2.80;;;10.60;97.10;;;;;;5074911;28;20201;-72
2021/06/02 01:11:28;;;;;;;3.78;2.67;;;10.50;96.80;;;;;;5075174;28;20169;-72
2021/06/02 01:13:58;;;;;;;2.42;2.22;;;10.60;96.90;;;;;;5074915;28;20571;-73
2021/06/02 01:16:34;;;;;;;2.33;2.22;;;10.70;96.80;;;;;;5074640;28;20222;-73
2021/06/02 01:19:01;;;;;;;2.03;1.90;;;10.70;97.10;;;;;;5075016;28;20184;-74
2021/06/02 01:21:29;;;;;;;3.22;2.90;;;10.70;97.20;;;;;;5074907;28;20184;-72
2021/06/02 01:23:59;;;;;;;3.08;2.80;;;10.70;97.20;;;;;;5074872;28;20208;-74
2021/06/02 01:26:26;;;;;;;2.15;1.95;;;10.70;97.00;;;;;;5073777;28;20574;-73
2021/06/02 01:28:53;;;;;;;2.53;2.30;;;10.70;96.60;;;;;;5074923;28;20304;-74
2021/06/02 01:31:52;;;;;;;3.25;2.78;;;10.50;96.20;;;;;;5074758;28;20181;-72
2021/06/02 01:34:29;;;;;;;2.85;2.63;;;10.50;96.40;;;;;;5074535;28;20165;-74
2021/06/02 01:37:38;;;;;;;2.67;2.28;;;10.50;96.30;;;;;;5074435;28;20185;-73
2021/06/02 01:40:24;;;;;;;2.75;2.55;;;10.60;96.20;;;;;;5074542;28;20225;-72
2021/06/02 01:42:58;;;;;;;3.00;2.80;;;10.60;96.40;;;;;;5074578;28;20531;-72
2021/06/02 01:45:50;;;;;;;3.33;3.03;;;10.50;97.30;;;;;;5073999;28;20188;-73
2021/06/02 01:48:32;;;;;;;3.35;2.55;;;10.50;97.30;;;;;;5073306;28;20209;-73
2021/06/02 01:51:35;;;;;;;3.97;3.47;;;10.30;96.90;;;;;;5073929;28;20221;-73
2021/06/02 01:54:45;;;;;;;4.20;2.85;;;10.30;97.50;;;;;;5074545;28;20188;-73
2021/06/02 01:57:20;;;;;;;3.08;2.88;;;10.40;97.50;;;;;;5073738;28;20186;-72
2021/06/02 02:00:13;;;;;;;3.15;2.85;;;10.30;97.60;;;;;;5074031;28;20169;-73
2021/06/02 02:02:51;;;;;;;2.83;2.40;;;10.30;97.40;;;;;;5074094;28;20174;-72
2021/06/02 02:05:35;;;;;;;5.15;2.85;;;10.30;97.60;;;;;;5073859;28;20188;-73
2021/06/02 02:08:37;;;;;;;3.63;3.33;;;10.20;97.50;;;;;;5073842;28;20186;-72
2021/06/02 02:11:03;;;;;;;2.33;2.13;;;10.00;97.90;;;;;;5073964;28;20256;-73
2021/06/02 02:13:34;;;;;;;2.57;2.30;;;10.10;97.50;;;;;;5074015;28;20687;-74
2021/06/02 02:16:36;;;;;;;2.85;2.58;;;10.20;97.70;;;;;;5073556;28;20276;-73
2021/06/02 02:19:17;;;;;;;2.35;2.15;;;10.40;97.30;;;;;;5074122;28;20169;-73
2021/06/02 02:22:16;;;;;;;3.83;3.40;;;10.30;97.50;;;;;;5073784;28;20169;-73
2021/06/02 02:24:55;;;;;;;2.97;2.67;;;10.40;97.50;;;;;;5073633;28;20181;-72
2021/06/02 02:27:53;;;;;;;2.70;2.50;;;10.30;97.20;;;;;;5073503;28;20170;-72
2021/06/02 02:30:25;;;;;;;3.25;2.45;;;10.20;97.40;;;;;;5073775;28;20244;-73
2021/06/02 02:33:15;;;;;;;2.30;2.20;;;9.90;98.20;;;;;;5073450;28;20165;-72
2021/06/02 02:35:43;;;;;;;3.40;2.65;;;9.90;98.80;;;;;;5073659;28;20585;-74
2021/06/02 02:38:46;;;;;;;2.53;2.05;;;9.80;98.80;;;;;;5073671;28;20166;-73
2021/06/02 02:41:51;;;;;;;2.72;2.22;;;9.80;99.30;;;;;;5073539;28;20177;-73
2021/06/02 02:44:44;;;;;;;2.50;2.30;;;10.00;98.50;;;;;;5073696;28;20196;-72
2021/06/02 02:47:18;;;;;;;3.03;2.70;;;10.20;98.50;;;;;;5073310;28;20192;-73
2021/06/02 02:50:16;;;;;;;2.58;2.38;;;10.20;98.10;;;;;;5073404;28;20168;-73
2021/06/02 02:52:51;;;;;;;2.97;2.63;;;10.40;98.90;;;;;;5073565;28;20170;-72
2021/06/02 02:55:20;;;;;;;3.00;2.40;;;10.40;98.30;;;;;;5073074;28;20276;-73
2021/06/02 02:58:06;;;;;;;2.50;2.30;;;10.50;98.00;;;;;;5071827;28;20635;-72
2021/06/02 03:00:41;;;;;;;7.22;2.90;;;10.60;97.90;;;;;;5073541;28;20646;-73
2021/06/02 03:03:23;;;;;;;2.70;2.50;;;10.70;97.50;;;;;;5076276;28;20169;-73
2021/06/02 03:05:56;;;;;;;4.05;2.25;;;10.70;97.00;;;;;;5077259;28;20193;-74
2021/06/02 03:08:52;;;;;;;3.13;2.90;;;10.60;97.50;;;;;;5077369;28;20236;-72
2021/06/02 03:11:28;;;;;;;2.92;2.65;;;10.60;97.40;;;;;;5076706;28;20205;-73
2021/06/02 03:14:19;;;;;;;3.35;3.05;;;10.70;97.60;;;;;;5077260;28;20256;-72
2021/06/02 03:17:02;;;;;;;2.63;2.35;;;10.80;97.50;;;;;;5077099;28;20235;-72
2021/06/02 03:19:43;;;;;;;2.92;2.72;;;10.90;97.90;;;;;;5077388;28;20211;-74
2021/06/02 03:22:14;;;;;;;2.63;2.42;;;10.70;97.60;;;;;;5077193;28;20261;-74
2021/06/02 03:25:30;;;;;;;2.65;2.45;;;10.60;98.00;;;;;;5077252;28;20170;-71
2021/06/02 03:28:14;;;;;;;2.47;2.30;;;10.50;98.20;;;;;;5076176;28;20205;-73
2021/06/02 03:30:42;;;;;;;3.03;2.78;;;10.60;98.10;;;;;;5077079;28;20248;-73
2021/06/02 03:33:45;;;;;;;3.20;2.88;;;10.50;98.20;;;;;;5076985;28;20256;-72
2021/06/02 03:36:29;;;;;;;3.40;3.10;;;10.30;98.50;;;;;;5076872;28;20604;-73
2021/06/02 03:39:16;;;;;;;1.98;1.77;;;10.20;99.00;;;;;;5076776;28;20513;-74
2021/06/02 03:41:59;;;;;;;3.08;2.15;;;10.20;98.30;;;;;;5077120;28;20543;-74
2021/06/02 03:44:49;;;;;;;2.45;2.25;;;10.30;97.70;;;;;;5076779;28;20538;-73
2021/06/02 03:47:22;;;;;;;3.08;2.25;;;10.10;97.40;;;;;;5076392;28;20272;-73
2021/06/02 03:49:57;;;;;;;2.72;2.53;;;10.10;97.50;;;;;;5077215;28;20170;-72
2021/06/02 03:52:47;;;;;;;2.90;2.63;;;10.30;98.20;;;;;;5076590;28;20184;-73
2021/06/02 03:55:31;;;;;;;2.20;2.10;;;10.40;98.40;;;;;;5076207;28;20196;-72
2021/06/02 03:58:25;;;;;;;2.97;2.60;;;10.40;98.50;;;;;;5076556;28;20182;-73
2021/06/02 04:01:13;;;;;;;4.47;3.50;;;10.30;98.20;;;;;;5076554;28;20240;-73
2021/06/02 04:03:55;;;;;;;2.30;2.20;;;10.40;98.30;;;;;;5076571;28;20169;-73
2021/06/02 04:06:28;;;;;;;3.65;3.03;;;10.40;98.00;;;;;;5076129;28;20655;-73
2021/06/02 04:09:20;;;;;;;3.92;2.35;;;10.50;98.10;;;;;;5076114;28;20596;-74
2021/06/02 04:11:55;;;;;;;3.35;3.05;;;10.60;98.30;;;;;;5076255;28;20631;-73
2021/06/02 04:14:35;;;;;;;2.22;2.03;;;10.60;98.10;;;;;;5075886;28;20248;-72
2021/06/02 04:17:01;;;;;;;2.55;2.38;;;10.70;98.10;;;;;;5075820;28;20544;-73
2021/06/02 04:19:32;;;;;;;2.83;2.63;;;10.70;98.30;;;;;;5076418;28;20174;-73
2021/06/02 04:22:06;;;;;;;3.80;2.80;;;10.80;98.20;;;;;;5075915;28;20174;-74
2021/06/02 04:24:33;;;;;;;3.45;2.80;;;10.80;98.70;;;;;;5076110;28;20178;-73
2021/06/02 04:27:00;;;;;;;2.30;2.10;;;10.90;99.00;;;;;;5075776;28;20190;-72
2021/06/02 04:29:27;;;;;;;4.00;2.30;;;11.20;98.80;;;;;;5075872;28;20201;-71
2021/06/02 04:31:54;;;;;;;2.77;2.57;;;11.70;97.80;;;;;;5075941;28;20176;-73
2021/06/02 04:34:21;;;;;;;3.10;2.30;;;12.40;96.80;;;;;;5075790;28;20431;-72
2021/06/02 04:36:53;;;;;;;2.33;2.13;;;13.40;95.70;;;;;;5075558;28;20420;-74
2021/06/02 04:39:20;;;;;;;2.20;2.07;;;14.50;92.90;;;;;;5074436;28;20457;-72
2021/06/02 04:41:46;;;;;;;2.83;2.10;;;15.30;90.20;;;;;;5075789;28;20411;-74
2021/06/02 04:44:15;;;;;;;2.87;2.60;;;15.80;89.00;;;;;;5075691;28;20416;-73
2021/06/02 04:46:42;;;;;;;2.30;2.10;;;16.20;87.30;;;;;;5075451;28;20428;-73
2021/06/02 04:49:07;;;;;;;2.07;1.93;;;16.40;86.00;;;;;;5075566;28;20462;-73
2021/06/02 04:51:42;;;;;;;2.70;2.50;;;16.30;86.70;;;;;;5075623;28;20404;-73
2021/06/02 04:54:39;;;;;;;2.60;2.10;;;16.50;87.50;;;;;;5075557;28;20391;-73
2021/06/02 04:57:35;;;;;;;2.87;2.50;;;16.60;86.30;;;;;;5075063;28;20420;-73
2021/06/02 05:00:31;;;;;;;3.53;3.23;;;16.90;83.80;;;;;;5075586;28;20395;-73
2021/06/02 05:03:23;;;;;;;5.00;2.83;;;17.30;82.00;;;;;;5075378;28;20753;-73
2021/06/02 05:06:26;;;;;;;2.70;2.50;;;17.50;80.20;;;;;;5074350;28;20438;-73
2021/06/02 05:09:19;;;;;;;2.83;2.63;;;17.80;79.30;;;;;;5074944;28;20462;-74
2021/06/02 05:12:21;;;;;;;2.97;2.70;;;18.10;78.10;;;;;;5075366;28;20918;-73
2021/06/02 05:15:13;;;;;;;4.33;2.77;;;18.30;75.80;;;;;;5075075;28;20391;-72
2021/06/02 05:18:16;;;;;;;4.50;3.77;;;18.00;75.80;;;;;;5075072;28;20392;-74
2021/06/02 05:24:03;;;;;;;3.63;2.90;;;17.50;77.10;;;;;;5083727;28;20821;-73
2021/06/02 05:26:38;;;;;;;3.20;2.93;;;17.30;78.90;;;;;;5074047;28;20507;-73
2021/06/02 05:29:41;;;;;;;3.10;2.87;;;17.40;79.70;;;;;;5074727;28;21024;-74
2021/06/02 05:32:34;;;;;;;3.83;2.97;;;17.70;78.80;;;;;;5074736;28;20729;-73
2021/06/02 05:35:53;;;;;;;4.17;3.77;;;17.80;77.70;;;;;;5074500;28;20445;-74
2021/06/02 05:38:47;;;;;;;6.40;3.90;;;17.70;78.50;;;;;;5074600;28;20493;-73
2021/06/02 05:41:47;;;;;;;3.77;3.47;;;17.50;77.90;;;;;;5073956;28;20502;-73
2021/06/02 05:44:51;;;;;;;3.50;3.20;;;17.30;81.10;;;;;;5074515;28;20491;-73
2021/06/02 05:47:38;;;;;;;4.63;4.10;;;18.20;81.00;;;;;;5073190;28;20438;-74
2021/06/02 05:50:23;;;;;;;3.27;2.97;;;20.00;77.10;;;;;;5074352;28;20413;-74
2021/06/02 05:53:10;;;;;;;4.67;3.20;;;22.10;70.90;;;;;;5074368;28;20396;-74
2021/06/02 05:55:53;;;;;;;3.40;3.10;;;23.80;61.80;;;;;;5074053;28;20819;-73
2021/06/02 05:58:53;;;;;;;6.40;2.97;;;25.20;56.00;;;;;;5074437;28;20404;-74
2021/06/02 06:01:43;;;;;;;4.03;2.80;;;26.40;51.10;;;;;;5074188;28;20371;-74
2021/06/02 06:04:36;;;;;;;3.20;2.90;;;28.00;46.60;;;;;;5074362;28;20444;-74
2021/06/02 06:07:44;;;;;;;2.40;2.20;;;30.00;44.60;;;;;;5073577;28;20435;-74
2021/06/02 06:10:27;;;;;;;6.13;3.90;;;31.30;40.70;;;;;;5073809;28;20419;-74
2021/06/02 06:13:27;;;;;;;6.00;3.47;;;32.60;38.00;;;;;;5073936;28;20396;-72
2021/06/02 06:16:30;;;;;;;6.37;3.63;;;33.40;35.50;;;;;;5072930;28;20432;-72
2021/06/02 06:19:12;;;;;;;2.70;2.50;;;34.50;33.50;;;;;;5073804;28;20451;-71
2021/06/02 06:22:04;;;;;;;2.93;2.63;;;35.30;32.20;;;;;;5073965;28;20404;-71
2021/06/02 06:24:55;;;;;;;6.10;2.60;;;36.20;31.80;;;;;;5074005;28;20399;-71
2021/06/02 06:27:36;;;;;;;4.50;2.90;;;36.30;30.70;;;;;;5073385;28;20495;-72
2021/06/02 06:30:04;;;;;;;2.30;2.13;;;37.00;30.40;;;;;;5073707;28;20498;-72
2021/06/02 06:32:33;;;;;;;2.67;2.47;;;37.70;29.50;;;;;;5073699;28;20886;-73
2021/06/02 06:35:03;;;;;;;2.10;1.90;;;38.30;28.70;;;;;;5073447;28;20404;-73
2021/06/02 06:37:35;;;;;;;2.80;2.10;;;38.70;27.70;;;;;;5073395;28;20446;-73
2021/06/02 06:40:06;;;;;;;2.50;2.30;;;38.90;28.20;;;;;;5073634;28;20557;-72
2021/06/02 06:42:42;;;;;;;3.07;2.50;;;37.50;27.90;;;;;;5073662;28;20402;-70
2021/06/02 06:45:15;;;;;;;2.37;2.20;;;36.80;29.00;;;;;;5073250;28;20392;-71
2021/06/02 06:47:41;;;;;;;2.47;2.27;;;36.80;28.50;;;;;;5073368;28;20561;-70
2021/06/02 06:50:12;;;;;;;3.10;2.90;;;36.70;28.70;;;;;;5073589;28;20411;-71
2021/06/02 06:52:42;;;;;;;4.53;2.50;;;36.40;28.50;;;;;;5073575;28;20399;-70
2021/06/02 06:55:09;;;;;;;5.63;3.10;;;36.30;29.90;;;;;;5073199;28;20396;-70
2021/06/02 06:57:35;;;;;;;2.40;2.20;;;36.90;28.00;;;;;;5073217;28;20798;-70
2021/06/02 07:00:03;;;;;;;2.87;2.30;;;37.50;26.90;;;;;;5072066;28;20410;-68
2021/06/02 07:02:29;;;;;;;3.40;2.50;;;37.50;28.00;;;;;;5073237;28;20412;-68
2021/06/02 07:04:57;;;;;;;2.63;2.27;;;37.50;27.00;;;;;;5073588;28;20778;-67
2021/06/02 07:07:25;;;;;;;2.60;1.90;;;37.30;27.20;;;;;;5073106;28;20920;-68
2021/06/02 07:09:51;;;;;;;27.10;9.50;;;37.90;26.30;;;;;;5073188;28;20427;-67
2021/06/02 07:12:21;;;;;;;2.40;2.20;;;38.10;27.20;;;;;;5073464;28;20403;-68
2021/06/02 07:14:49;;;;;;;1.80;1.63;;;38.60;26.20;;;;;;5073426;28;20403;-68
2021/06/02 07:17:16;;;;;;;2.20;2.00;;;39.00;27.20;;;;;;5073223;28;20427;-68
2021/06/02 07:19:49;;;;;;;2.83;2.13;;;39.20;26.60;;;;;;5073134;28;20400;-70
2021/06/02 07:22:19;;;;;;;4.83;1.90;;;39.30;25.90;;;;;;5072046;28;20412;-71
2021/06/02 07:24:46;;;;;;;2.13;1.93;;;39.80;25.60;;;;;;5073271;28;20528;-70
2021/06/02 07:27:14;;;;;;;2.20;2.10;;;39.50;26.10;;;;;;5072820;28;20432;-69
2021/06/02 07:29:39;;;;;;;1.97;1.77;;;39.80;26.40;;;;;;5073294;28;20458;-70
2021/06/02 07:32:05;;;;;;;1.97;1.87;;;40.20;25.90;;;;;;5072806;28;20407;-69
2021/06/02 07:34:31;;;;;;;1.77;1.67;;;40.10;25.50;;;;;;5073173;28;20734;-69
2021/06/02 07:36:57;;;;;;;2.07;1.80;;;40.20;25.50;;;;;;5072544;28;20270;-68
2021/06/02 07:39:22;;;;;;;2.50;2.30;;;40.50;24.80;;;;;;5073143;28;20440;-70
2021/06/02 07:41:48;;;;;;;4.00;1.90;;;40.50;25.00;;;;;;5073042;28;20522;-69
2021/06/02 07:44:14;;;;;;;2.70;1.83;;;40.10;25.60;;;;;;5072958;28;20261;-69
2021/06/02 07:46:41;;;;;;;1.73;1.63;;;39.90;25.10;;;;;;5072744;28;20223;-69
2021/06/02 07:49:07;;;;;;;1.77;1.67;;;40.50;25.30;;;;;;5075071;28;20201;-70
2021/06/02 07:51:33;;;;;;;1.43;1.33;;;40.20;25.50;;;;;;5074875;28;20423;-69
2021/06/02 07:53:59;;;;;;;2.50;1.90;;;40.60;25.80;;;;;;5076254;28;20200;-69
2021/06/02 07:56:25;;;;;;;2.23;2.00;;;40.90;25.20;;;;;;5076156;28;20416;-69
2021/06/02 07:58:50;;;;;;;2.43;1.70;;;41.30;24.10;;;;;;5076506;28;20663;-69
2021/06/02 08:01:16;;;;;;;3.07;1.97;;;40.50;24.80;;;;;;5076659;28;20631;-69
2021/06/02 08:03:42;;;;;;;1.73;1.63;;;40.60;24.30;;;;;;5076371;28;20276;-69
2021/06/02 08:06:08;;;;;;;2.03;1.77;;;40.50;24.20;;;;;;5076052;28;20197;-69
2021/06/02 08:08:33;;;;;;;9.37;2.00;;;40.80;24.30;;;;;;5076006;28;20577;-69
2021/06/02 08:10:59;;;;;;;2.70;1.77;;;40.60;24.50;;;;;;5076569;28;20181;-69
2021/06/02 08:13:25;;;;;;;1.80;1.70;;;40.90;24.30;;;;;;5076222;28;20257;-69
2021/06/02 08:15:50;;;;;;;2.30;2.00;;;41.30;24.10;;;;;;5075960;28;20194;-69
2021/06/02 08:18:16;;;;;;;2.40;1.97;;;41.90;24.50;;;;;;5076235;28;20628;-69
2021/06/02 08:20:42;;;;;;;5.13;1.87;;;41.90;24.30;;;;;;5076125;28;20176;-69
2021/06/02 08:23:08;;;;;;;3.70;2.00;;;42.20;24.00;;;;;;5075957;28;20181;-69
2021/06/02 08:25:34;;;;;;;2.30;2.10;;;42.00;23.80;;;;;;5075655;28;20199;-69
2021/06/02 08:27:59;;;;;;;4.30;1.87;;;41.50;23.60;;;;;;5075908;28;20652;-68
2021/06/02 08:30:25;;;;;;;1.80;1.70;;;42.10;24.30;;;;;;5074697;28;20440;-70
2021/06/02 08:32:51;;;;;;;2.27;1.70;;;42.50;23.70;;;;;;5075958;28;20170;-69
2021/06/02 08:35:18;;;;;;;2.30;2.10;;;42.60;24.00;;;;;;5075632;28;20189;-69
2021/06/02 08:37:45;;;;;;;2.10;1.50;;;42.70;24.10;;;;;;5075702;28;20170;-68
2021/06/02 08:40:12;;;;;;;1.93;1.73;;;43.00;23.20;;;;;;5076080;28;20400;-69
2021/06/02 08:42:42;;;;;;;1.97;1.83;;;42.90;23.00;;;;;;5075633;28;20403;-69
2021/06/02 08:45:10;;;;;;;2.50;1.83;;;43.20;24.30;;;;;;5075456;28;20886;-69
2021/06/02 08:47:36;;;;;;;1.83;1.73;;;43.70;23.60;;;;;;5075562;28;20869;-69
2021/06/02 08:50:04;;;;;;;1.47;1.37;;;43.50;22.70;;;;;;5074413;28;20447;-69
2021/06/02 08:52:33;;;;;;;1.80;1.70;;;43.30;23.60;;;;;;5075388;28;20180;-69
2021/06/02 08:54:59;;;;;;;2.13;1.83;;;43.20;24.20;;;;;;5075333;28;20400;-69
2021/06/02 08:57:24;;;;;;;1.40;1.30;;;43.40;23.40;;;;;;5075314;28;20435;-69
2021/06/02 08:59:50;;;;;;;1.60;1.50;;;43.80;23.40;;;;;;5073050;28;20528;-68
2021/06/02 09:02:16;;;;;;;5.37;1.37;;;44.30;23.60;;;;;;5075687;28;20650;-69
2021/06/02 09:04:42;;;;;;;1.93;1.73;;;43.10;22.70;;;;;;5075282;28;20176;-70
2021/06/02 09:07:08;;;;;;;2.90;2.50;;;40.90;25.40;;;;;;5075108;28;20420;-69
2021/06/02 09:09:34;;;;;;;2.30;1.70;;;39.40;25.10;;;;;;5075244;28;20209;-69
2021/06/02 09:12:06;;;;;;;1.90;1.80;;;37.80;26.70;;;;;;5075484;28;20400;-69
2021/06/02 09:14:38;;;;;;;2.13;2.00;;;36.50;29.20;;;;;;5075572;28;20174;-69
2021/06/02 09:17:08;;;;;;;2.37;1.90;;;35.70;29.10;;;;;;5074705;28;20427;-69
2021/06/02 09:19:42;;;;;;;1.50;1.40;;;36.10;29.10;;;;;;5075073;28;20411;-70
2021/06/02 09:22:16;;;;;;;1.87;1.67;;;37.20;29.30;;;;;;5073962;28;20416;-69
2021/06/02 09:24:50;;;;;;;2.40;1.73;;;38.40;28.50;;;;;;5075303;28;20810;-70
2021/06/02 09:27:18;;;;;;;2.20;1.70;;;39.70;25.30;;;;;;5074488;28;20459;-70
2021/06/02 09:29:51;;;;;;;2.30;2.10;;;41.10;25.00;;;;;;5074668;28;20478;-70
2021/06/02 09:32:22;;;;;;;5.17;1.67;;;42.80;25.00;;;;;;5074861;28;20411;-69
2021/06/02 09:34:48;;;;;;;4.10;2.07;;;44.00;24.40;;;;;;5074554;28;20434;-70
2021/06/02 09:37:14;;;;;;;1.50;1.40;;;44.30;22.70;;;;;;5074750;28;20420;-69
2021/06/02 09:39:44;;;;;;;2.47;2.27;;;44.20;23.60;;;;;;5074635;28;20412;-70
2021/06/02 09:42:18;;;;;;;2.00;1.90;;;43.20;23.30;;;;;;5074504;28;20176;-70
2021/06/02 09:45:06;;;;;;;2.80;1.63;;;42.90;24.50;;;;;;5074694;28;20414;-71
2021/06/02 09:47:58;;;;;;;2.70;1.53;;;43.70;23.50;;;;;;5074664;28;20453;-70
2021/06/02 09:50:36;;;;;;;1.93;1.83;;;43.90;23.30;;;;;;5074410;28;20435;-71
2021/06/02 09:53:07;;;;;;;1.77;1.67;;;44.70;22.50;;;;;;5074236;28;20877;-69
2021/06/02 09:55:38;;;;;;;2.50;1.73;;;45.10;23.00;;;;;;5073443;28;20431;-70
2021/06/02 09:58:07;;;;;;;1.80;1.70;;;45.10;22.90;;;;;;5072310;28;20975;-69
2021/06/02 10:00:41;;;;;;;1.43;1.33;;;45.60;22.20;;;;;;5073978;28;20442;-70
2021/06/02 10:03:12;;;;;;;2.00;1.90;;;45.50;21.90;;;;;;5074415;28;20946;-71
2021/06/02 10:05:40;;;;;;;2.37;1.53;;;44.90;23.00;;;;;;5073625;28;20443;-70
2021/06/02 10:08:07;;;;;;;1.80;1.53;;;45.10;21.40;;;;;;5074005;28;20473;-71
2021/06/02 10:10:34;;;;;;;2.13;1.67;;;44.30;22.20;;;;;;5072403;28;20416;-70
2021/06/02 10:13:03;;;;;;;2.30;2.00;;;43.10;22.90;;;;;;5074009;28;20806;-69
2021/06/02 10:15:33;;;;;;;2.20;1.90;;;42.80;22.50;;;;;;5072223;28;20468;-70
2021/06/02 10:17:59;;;;;;;3.40;1.60;;;42.90;22.80;;;;;;5073812;28;20404;-70
2021/06/02 10:20:26;;;;;;;1.27;1.20;;;40.40;23.80;;;;;;5073969;28;20415;-68
2021/06/02 10:22:54;;;;;;;2.00;1.80;;;38.30;26.30;;;;;;5073834;28;20400;-68
2021/06/02 10:25:24;;;;;;;1.70;1.60;;;36.50;27.30;;;;;;5073569;28;20640;-69
2021/06/02 10:27:54;;;;;;;1.93;1.83;;;35.10;27.50;;;;;;5072964;28;20454;-69
2021/06/02 10:30:22;;;;;;;2.07;1.97;;;34.50;29.70;;;;;;5072187;28;20916;-69
2021/06/02 10:32:49;;;;;;;1.80;1.70;;;33.80;29.50;;;;;;5073687;28;20402;-69
2021/06/02 10:35:15;;;;;;;2.70;1.90;;;34.00;30.90;;;;;;5073401;28;20396;-68
2021/06/02 10:37:42;;;;;;;2.00;1.90;;;33.90;28.60;;;;;;5073675;28;20898;-69
2021/06/02 10:40:10;;;;;;;1.43;1.33;;;34.90;28.80;;;;;;5073426;28;20430;-68
2021/06/02 10:42:38;;;;;;;1.47;1.37;;;36.20;28.90;;;;;;5073707;28;20392;-69
2021/06/02 10:45:35;;;;;;;3.20;1.50;;;37.80;28.40;;;;;;5073210;28;20490;-68
2021/06/02 10:48:03;;;;;;;2.10;1.70;;;38.90;27.30;;;;;;5073261;28;20455;-70
2021/06/02 10:50:35;;;;;;;1.80;1.70;;;38.70;25.40;;;;;;5073578;28;20491;-69
2021/06/02 10:53:20;;;;;;;2.30;2.10;;;38.00;27.00;;;;;;5073641;28;20764;-68
2021/06/02 10:55:57;;;;;;;2.20;1.30;;;36.50;27.30;;;;;;5073282;28;20854;-68
2021/06/02 10:58:31;;;;;;;2.73;2.40;;;34.90;30.00;;;;;;5073678;28;20767;-70
2021/06/02 11:01:10;;;;;;;2.50;1.77;;;33.80;30.00;;;;;;5073547;28;20469;-70
2021/06/02 11:03:38;;;;;;;2.43;2.23;;;32.70;30.60;;;;;;5073722;28;20414;-68
2021/06/02 11:06:15;;;;;;;1.77;1.67;;;31.90;33.60;;;;;;5073032;28;20845;-69
2021/06/02 11:08:56;;;;;;;2.20;1.50;;;31.50;33.20;;;;;;5073293;28;20822;-68
2021/06/02 11:11:29;;;;;;;2.13;1.93;;;31.50;34.20;;;;;;5073325;28;20482;-69
2021/06/02 11:14:15;;;;;;;2.50;2.03;;;31.60;35.30;;;;;;5073427;28;20767;-70
2021/06/02 11:16:57;;;;;;;2.70;2.50;;;31.40;34.00;;;;;;5072828;28;20469;-70
2021/06/02 11:19:41;;;;;;;2.50;2.30;;;31.10;37.70;;;;;;5073367;28;20410;-70
2021/06/02 11:22:09;;;;;;;2.23;2.03;;;30.10;35.80;;;;;;5073388;28;20399;-68
2021/06/02 11:24:37;;;;;;;2.43;2.23;;;29.70;34.50;;;;;;5076373;28;20382;-69
2021/06/02 11:29:49;;;;;;;3.27;2.00;;;29.20;34.60;;;;;;5077123;28;20604;-70
2021/06/02 11:32:21;;;;;;;2.30;2.10;;;28.60;36.80;;;;;;5077521;28;20437;-69
2021/06/02 11:34:49;;;;;;;2.00;1.90;;;28.40;37.70;;;;;;5076869;28;20924;-70
2021/06/02 11:37:16;;;;;;;3.13;2.27;;;28.00;37.70;;;;;;5076595;28;20475;-68
2021/06/02 11:39:44;;;;;;;2.40;2.20;;;27.30;38.60;;;;;;5076844;28;20466;-67
2021/06/02 11:42:26;;;;;;;4.83;2.23;;;27.00;40.30;;;;;;5076841;28;20404;-68
2021/06/02 11:44:57;;;;;;;2.60;2.40;;;27.20;41.40;;;;;;5076814;28;20848;-70
2021/06/02 11:47:22;;;;;;;4.80;2.60;;;27.20;40.70;;;;;;5076529;28;20399;-69
2021/06/02 11:49:48;;;;;;;3.00;2.80;;;26.60;40.30;;;;;;5076474;28;20863;-68
2021/06/02 11:52:16;;;;;;;2.77;2.57;;;26.20;41.60;;;;;;5076632;28;20181;-69
2021/06/02 11:55:04;;;;;;;3.00;2.60;;;25.90;43.30;;;;;;5076653;28;20223;-67
2021/06/02 11:57:31;;;;;;;8.63;3.50;;;26.20;42.70;;;;;;5076661;28;20399;-69
2021/06/02 12:00:02;;;;;;;2.70;2.60;;;26.50;41.80;;;;;;5076800;28;20490;-68
2021/06/02 12:02:29;;;;;;;3.03;2.83;;;26.60;41.20;;;;;;5076600;28;20491;-67
2021/06/02 12:05:22;;;;;;;2.97;2.27;;;26.50;41.00;;;;;;5076339;28;20404;-68
2021/06/02 12:07:54;;;;;;;2.23;2.13;;;26.20;40.90;;;;;;5076364;28;20505;-68
2021/06/02 12:10:21;;;;;;;5.37;2.47;;;26.00;41.20;;;;;;5076413;28;20921;-69
2021/06/02 12:12:47;;;;;;;2.23;2.13;;;25.40;42.00;;;;;;5074932;28;20412;-69
2021/06/02 12:15:16;;;;;;;5.50;2.53;;;25.60;42.20;;;;;;5075914;28;20403;-68
2021/06/02 12:17:43;;;;;;;2.70;2.50;;;25.60;42.40;;;;;;5076284;28;20454;-68
2021/06/02 12:20:22;;;;;;;3.50;2.77;;;25.40;42.70;;;;;;5076172;28;20432;-69
2021/06/02 12:22:49;;;;;;;2.83;2.63;;;25.30;42.80;;;;;;5076232;28;20396;-69
2021/06/02 12:25:18;;;;;;;4.07;2.70;;;25.20;44.60;;;;;;5075971;28;20503;-67
2021/06/02 12:27:52;;;;;;;2.40;2.20;;;25.10;43.60;;;;;;5075909;28;20938;-68
2021/06/02 12:30:27;;;;;;;3.70;2.50;;;25.10;43.70;;;;;;5074736;28;20427;-68
2021/06/02 12:33:00;;;;;;;3.00;2.80;;;25.20;45.00;;;;;;5076538;28;20437;-69
2021/06/02 12:35:35;;;;;;;2.60;2.40;;;25.20;45.70;;;;;;5075646;28;20569;-69
2021/06/02 12:38:21;;;;;;;2.73;2.23;;;25.10;44.40;;;;;;5076070;28;20417;-68
2021/06/02 12:40:58;;;;;;;3.00;2.30;;;25.20;44.20;;;;;;5076173;28;20410;-67
2021/06/02 12:43:40;;;;;;;3.00;2.80;;;25.10;45.50;;;;;;5075894;28;20446;-68
2021/06/02 12:46:15;;;;;;;2.30;2.10;;;25.10;47.30;;;;;;5075577;28;20431;-69
2021/06/02 12:48:42;;;;;;;2.80;2.53;;;25.10;48.30;;;;;;5076049;28;20451;-69
2021/06/02 12:51:15;;;;;;;3.30;3.00;;;25.00;48.60;;;;;;5076062;28;20399;-67
2021/06/02 12:53:46;;;;;;;3.00;2.70;;;24.70;48.30;;;;;;5074690;28;20421;-66
2021/06/02 12:56:14;;;;;;;9.73;2.80;;;24.60;49.20;;;;;;5075455;28;20600;-68
2021/06/02 12:58:43;;;;;;;3.43;2.70;;;24.60;50.90;;;;;;5075642;28;20487;-67
2021/06/02 13:01:11;;;;;;;2.90;2.70;;;24.40;51.70;;;;;;5074217;28;20782;-67
2021/06/02 13:03:53;;;;;;;2.20;2.10;;;24.40;52.30;;;;;;5075342;28;20443;-68
2021/06/02 13:06:21;;;;;;;6.07;3.00;;;24.30;52.90;;;;;;5073811;28;20430;-68
2021/06/02 13:08:48;;;;;;;4.00;2.87;;;23.90;54.60;;;;;;5074933;28;20461;-68
2021/06/02 13:11:18;;;;;;;2.97;2.77;;;23.60;55.20;;;;;;5075037;28;20466;-66
2021/06/02 13:13:49;;;;;;;3.30;3.00;;;23.40;56.50;;;;;;5075311;28;21028;-69
2021/06/02 13:16:15;;;;;;;3.73;3.43;;;23.60;59.50;;;;;;5074320;28;20427;-66
2021/06/02 13:18:41;;;;;;;2.90;2.70;;;23.50;56.50;;;;;;5074032;28;20408;-68
2021/06/02 13:21:20;;;;;;;2.73;2.47;;;23.50;55.80;;;;;;5074859;28;20409;-66
2021/06/02 13:23:46;;;;;;;3.03;2.73;;;23.50;55.50;;;;;;5074890;28;20169;-68
2021/06/02 13:26:14;;;;;;;3.50;2.60;;;23.60;56.20;;;;;;5073252;28;20450;-69
2021/06/02 13:28:59;;;;;;;2.87;2.67;;;23.50;56.60;;;;;;5074566;28;20288;-69
2021/06/02 13:31:47;;;;;;;2.50;2.30;;;23.70;56.50;;;;;;5072535;28;20778;-67
2021/06/02 13:34:33;;;;;;;3.17;2.80;;;23.80;56.40;;;;;;5074994;28;20396;-66
2021/06/02 13:37:21;;;;;;;5.40;3.20;;;23.90;55.90;;;;;;5073251;28;20463;-67